Hauptseite
METAR-TAF:

METAR-TAF

Flughäfen :

Fritzlar, Deutschland

Heeresflugplatz Fritzlar

Breite: 51-07N, Länge: 009-17E, Höhe: 172 m

Beobachtung

Neuester Wetterbericht von vor 37 Minuten, um 01:20 UTC
Wind 1 kt aus Süd/Südwest
Temperatur 6°C
Luftfeuchtigkeit 100%
Luftdruck 1020 hPa
Sichtweite: 0900 m
Durchbrochene Bewölkung in der Höhe von 7000 ft
Nebel

METAR: ETHF 200120Z 21001KT 0900 FG BKN070 06/06 Q1020 AMB

Zeit: 03:57 (01:57 UTC)

Prognose

Neuester Wetterbericht von vor 11 Stunden und 12 Minuten, um 14:45 UTC
Gültige Prognose vom 19 um 14 UTC bis 19 um 23 UTC
Wind 5 kt aus West/Nordwest
Sichtweite: 1500 m
Aufgelockert bewölkt in der Höhe von 2500 ft
Durchbrochene Bewölkung in der Höhe von 8000 ft

TAF: ETHF 191445Z 1914/1923 29005KT 9999 NSW SCT025 BKN080 CANCEL 1500

Wetterbeobachtungen und Prognosen von mehr als 4000 Flughäfen (METAR und TAF Bericht).

Die verfügbaren Stationen werden durch gelbe und rote Markierungen auf der Karte dargestellt.

Führen Sie die Maus auf sie, um den Namen der Station zu sehen.

Darauf klicken, um die Beobachtung von Wetterbeobachtungen und Prognosen zu sehen.

Um die Karte zu ändern : klicken Sie auf den grünen Tasten mit einem schwarzen Kreuz Zum Vergrößern, auf den grünen Button mit einem Gedankenstrich zu verkleinern, oder auf die grünen Pfeile für benachbarte Karten.


METAR-TAF: